Time;durP1;ratioP1;P1;durP2;ratioP2;P2;SDS_P1;SDS_P2;PMS_P1;PMS_P2;Temp;Humidity;BMP_temperature;BMP_pressure;BME280_temperature;BME280_humidity;BME280_pressure;Samples;Min_cycle;Max_cycle;Signal;HPM_P1;HPM_P2
2023/10/01 00:01:36;;;;;;;0.38;0.38;;;14.20;99.90;;;;;;5078284;28;20043;-74
2023/10/01 00:04:04;;;;;;;0.20;0.20;;;14.20;99.90;;;;;;5086707;28;20051;-75
2023/10/01 00:06:30;;;;;;;0.82;0.82;;;14.20;99.90;;;;;;5076585;28;20462;-74
2023/10/01 00:08:57;;;;;;;0.28;0.28;;;14.30;99.90;;;;;;5081352;28;20634;-75
2023/10/01 00:11:25;;;;;;;0.50;0.50;;;14.30;99.90;;;;;;5078535;28;20053;-77
2023/10/01 00:13:50;;;;;;;0.22;0.22;;;14.30;99.90;;;;;;5079219;28;20044;-77
2023/10/01 00:16:16;;;;;;;0.20;0.20;;;14.30;99.90;;;;;;5080047;28;20052;-74
2023/10/01 00:18:42;;;;;;;0.30;0.30;;;14.30;99.90;;;;;;5085533;28;20040;-75
2023/10/01 00:21:07;;;;;;;;;;;14.30;99.90;;;;;;5079284;28;20044;-75
2023/10/01 00:23:33;;;;;;;0.43;0.43;;;14.40;99.90;;;;;;5077730;28;20147;-75
2023/10/01 00:25:59;;;;;;;;;;;14.40;99.90;;;;;;5072289;28;20138;-74
2023/10/01 00:28:25;;;;;;;0.40;0.40;;;14.40;99.90;;;;;;5079057;28;19936;-74
2023/10/01 00:30:50;;;;;;;0.35;0.35;;;14.40;99.90;;;;;;5082226;28;20052;-75
2023/10/01 00:33:17;;;;;;;0.30;0.30;;;14.40;99.90;;;;;;5079882;28;20040;-74
2023/10/01 00:35:42;;;;;;;0.32;0.32;;;14.40;99.90;;;;;;5081736;28;20172;-75
2023/10/01 00:38:09;;;;;;;0.22;0.22;;;14.40;99.90;;;;;;5075749;28;20047;-75
2023/10/01 00:40:35;;;;;;;0.55;0.55;;;14.40;99.90;;;;;;5085317;28;20698;-75
2023/10/01 00:43:03;;;;;;;0.20;0.20;;;14.40;99.90;;;;;;5073303;28;20055;-75
2023/10/01 00:45:30;;;;;;;0.40;0.40;;;14.40;99.90;;;;;;5072896;28;20144;-75
2023/10/01 00:48:03;;;;;;;0.57;0.57;;;14.40;99.90;;;;;;5079151;28;20097;-74
2023/10/01 00:50:29;;;;;;;0.30;0.30;;;14.40;99.90;;;;;;5078673;28;20123;-74
2023/10/01 00:52:58;;;;;;;0.30;0.30;;;14.40;99.90;;;;;;5079514;28;20131;-75
2023/10/01 00:55:23;;;;;;;0.40;0.40;;;14.40;99.90;;;;;;5076767;28;20040;-74
2023/10/01 00:57:53;;;;;;;0.47;0.47;;;14.40;99.90;;;;;;5080943;28;20056;-75
2023/10/01 01:00:19;;;;;;;0.30;0.30;;;14.40;99.90;;;;;;5082647;28;20040;-74
2023/10/01 01:02:57;;;;;;;0.45;0.45;;;14.40;99.90;;;;;;5086035;28;20063;-75
2023/10/01 01:05:37;;;;;;;0.32;0.32;;;14.40;99.90;;;;;;5065357;28;20052;-74
2023/10/01 01:08:22;;;;;;;0.30;0.30;;;14.40;99.90;;;;;;5083708;28;20376;-75
2023/10/01 01:10:52;;;;;;;0.45;0.45;;;14.40;99.90;;;;;;5085395;28;20044;-75
2023/10/01 01:13:17;;;;;;;0.20;0.20;;;14.40;99.90;;;;;;5082752;28;20044;-74
2023/10/01 01:15:48;;;;;;;0.30;0.30;;;14.40;99.90;;;;;;5081746;28;20445;-74
2023/10/01 01:18:14;;;;;;;0.30;0.30;;;14.40;99.90;;;;;;5083315;28;20087;-75
2023/10/01 01:20:45;;;;;;;0.88;0.88;;;14.50;99.90;;;;;;5092870;28;20362;-75
2023/10/01 01:23:18;;;;;;;0.30;0.30;;;14.50;99.90;;;;;;5085266;28;20051;-76
2023/10/01 01:25:45;;;;;;;0.52;0.50;;;14.50;99.90;;;;;;5077696;28;20039;-76
2023/10/01 01:28:23;;;;;;;0.30;0.30;;;14.50;99.90;;;;;;5084581;28;20051;-75
2023/10/01 01:30:50;;;;;;;4.63;1.23;;;14.50;99.90;;;;;;5075088;28;20052;-75
2023/10/01 01:33:20;;;;;;;0.98;0.95;;;14.50;99.90;;;;;;5081715;28;20053;-75
2023/10/01 01:35:50;;;;;;;0.52;0.52;;;14.50;99.90;;;;;;5085176;28;20059;-75
2023/10/01 01:38:16;;;;;;;0.55;0.55;;;14.50;99.90;;;;;;5084644;28;20048;-75
2023/10/01 01:40:47;;;;;;;0.40;0.40;;;14.50;99.90;;;;;;5087778;28;20040;-75
2023/10/01 01:43:16;;;;;;;0.38;0.38;;;14.50;99.90;;;;;;5081540;28;20395;-75
2023/10/01 01:45:45;;;;;;;0.30;0.30;;;14.50;99.90;;;;;;5082421;28;20119;-75
2023/10/01 01:51:00;;;;;;;0.40;0.40;;;14.50;99.90;;;;;;5082022;28;20052;-75
2023/10/01 01:53:26;;;;;;;1.13;1.05;;;14.50;99.90;;;;;;5084420;28;20040;-74
2023/10/01 01:55:56;;;;;;;0.45;0.45;;;14.50;99.90;;;;;;5076320;28;20044;-75
2023/10/01 01:58:26;;;;;;;0.45;0.45;;;14.50;99.90;;;;;;5079185;28;20052;-75
2023/10/01 02:01:01;;;;;;;0.65;0.65;;;14.50;99.90;;;;;;5082055;28;20471;-75
2023/10/01 02:03:33;;;;;;;1.27;0.90;;;14.50;99.90;;;;;;5083894;28;20048;-75
2023/10/01 02:06:04;;;;;;;0.25;0.25;;;14.50;99.90;;;;;;5083252;28;20052;-76
2023/10/01 02:11:21;;;;;;;1.77;0.90;;;14.60;99.90;;;;;;5083454;28;20571;-75
2023/10/01 02:13:50;;;;;;;0.40;0.40;;;14.60;99.90;;;;;;5082475;28;20056;-75
2023/10/01 02:16:35;;;;;;;0.52;0.52;;;14.60;99.90;;;;;;5082545;28;20059;-75
2023/10/01 02:19:14;;;;;;;0.93;0.52;;;14.60;99.90;;;;;;5080825;28;20045;-75
2023/10/01 02:22:00;;;;;;;2.60;1.40;;;14.60;99.90;;;;;;5072675;28;20064;-75
2023/10/01 02:24:45;;;;;;;0.20;0.20;;;14.60;99.90;;;;;;5080588;28;20044;-75
2023/10/01 02:27:16;;;;;;;0.57;0.57;;;14.60;99.90;;;;;;5070650;28;20044;-74
2023/10/01 02:32:28;;;;;;;0.93;0.88;;;14.60;99.90;;;;;;5080340;28;20060;-74
2023/10/01 02:34:56;;;;;;;0.40;0.40;;;14.60;99.90;;;;;;5075371;28;20123;-75
2023/10/01 02:37:42;;;;;;;0.93;0.93;;;14.50;99.90;;;;;;5084169;28;20048;-75
2023/10/01 02:40:17;;;;;;;0.40;0.40;;;14.50;99.90;;;;;;5079765;28;20101;-75
2023/10/01 02:42:44;;;;;;;0.40;0.40;;;14.50;99.90;;;;;;5081186;28;20105;-74
2023/10/01 02:45:30;;;;;;;1.20;1.10;;;14.50;99.90;;;;;;5080006;28;20048;-75
2023/10/01 02:48:13;;;;;;;0.63;0.63;;;14.50;99.90;;;;;;5082428;28;20414;-75
2023/10/01 02:50:45;;;;;;;0.30;0.30;;;14.50;99.90;;;;;;5079106;28;20059;-75
2023/10/01 02:53:14;;;;;;;0.22;0.22;;;14.50;99.90;;;;;;5083620;28;20083;-75
2023/10/01 02:55:44;;;;;;;0.77;0.77;;;14.50;99.90;;;;;;5083973;28;20074;-75
2023/10/01 02:58:27;;;;;;;1.02;0.70;;;14.50;99.90;;;;;;5071739;28;20454;-74
2023/10/01 03:00:53;;;;;;;0.43;0.43;;;14.40;99.90;;;;;;5080615;28;20131;-75
2023/10/01 03:03:31;;;;;;;0.55;0.55;;;14.40;99.90;;;;;;5083128;28;20036;-74
2023/10/01 03:06:08;;;;;;;1.30;1.20;;;14.40;99.90;;;;;;5082619;28;20122;-75
2023/10/01 03:08:59;;;;;;;1.10;1.10;;;14.40;99.90;;;;;;5079558;28;20040;-75
2023/10/01 03:11:25;;;;;;;0.63;0.63;;;14.40;99.90;;;;;;5080279;28;20044;-75
2023/10/01 03:13:54;;;;;;;1.55;1.38;;;14.40;99.90;;;;;;5079222;28;20045;-75
2023/10/01 03:16:42;;;;;;;0.70;0.65;;;14.40;99.90;;;;;;5082420;28;20045;-75
2023/10/01 03:24:31;;;;;;;0.38;0.38;;;14.40;99.90;;;;;;5080214;28;20049;-74
2023/10/01 03:27:12;;;;;;;0.50;0.50;;;14.40;99.90;;;;;;5076625;28;20066;-77
2023/10/01 03:29:42;;;;;;;4.32;0.80;;;14.40;99.90;;;;;;5073642;28;20068;-75
2023/10/01 03:32:27;;;;;;;0.95;0.85;;;14.50;99.90;;;;;;5082236;28;20056;-75
2023/10/01 03:34:53;;;;;;;0.55;0.55;;;14.50;99.90;;;;;;5072115;28;20044;-75
2023/10/01 03:37:19;;;;;;;;;;;14.40;99.90;;;;;;5080065;28;20040;-74
2023/10/01 03:39:52;;;;;;;1.45;0.80;;;14.50;99.90;;;;;;5087076;28;20045;-74
2023/10/01 03:42:18;;;;;;;0.50;0.50;;;14.40;99.90;;;;;;5082800;28;20043;-75
2023/10/01 03:47:29;;;;;;;0.98;0.98;;;14.50;99.90;;;;;;5081854;28;20429;-75
2023/10/01 03:49:57;;;;;;;0.68;0.68;;;14.40;99.90;;;;;;5072914;28;20060;-75
2023/10/01 03:52:29;;;;;;;0.70;0.70;;;14.50;99.90;;;;;;5079054;28;20071;-75
2023/10/01 03:57:30;;;;;;;1.00;0.93;;;14.50;99.90;;;;;;5082155;28;20136;-75
2023/10/01 03:59:57;;;;;;;0.30;0.30;;;14.50;99.90;;;;;;5079976;28;20051;-74
2023/10/01 04:02:27;;;;;;;0.40;0.40;;;14.50;99.90;;;;;;5079113;28;20601;-75
2023/10/01 04:04:57;;;;;;;0.95;0.93;;;14.50;99.90;;;;;;5079394;28;20280;-75
2023/10/01 04:07:42;;;;;;;0.38;0.38;;;14.50;99.90;;;;;;5082403;28;20036;-75
2023/10/01 04:10:58;;;;;;;0.75;0.75;;;14.50;99.90;;;;;;5055151;28;20102;-75
2023/10/01 04:13:20;;;;;;;0.43;0.35;;;14.50;99.90;;;;;;5075672;28;20059;-75
2023/10/01 04:15:57;;;;;;;0.75;0.70;;;14.60;99.90;;;;;;5078031;28;20463;-75
2023/10/01 04:18:24;;;;;;;;;;;14.60;99.90;;;;;;5081647;28;20237;-76
2023/10/01 04:23:32;;;;;;;0.40;0.40;;;14.60;99.90;;;;;;5079282;28;20052;-74
2023/10/01 04:26:04;;;;;;;1.30;1.20;;;14.60;99.90;;;;;;5071005;28;20044;-75
2023/10/01 04:28:50;;;;;;;0.60;0.60;;;14.60;99.90;;;;;;5076507;28;20055;-74
2023/10/01 04:31:42;;;;;;;0.40;0.40;;;14.60;99.90;;;;;;5075940;28;20534;-75
2023/10/01 04:34:10;;;;;;;0.55;0.55;;;14.70;99.90;;;;;;5078622;28;20114;-75
2023/10/01 04:36:42;;;;;;;0.30;0.30;;;14.70;99.90;;;;;;5079907;28;20056;-75
2023/10/01 04:39:09;;;;;;;0.63;0.63;;;14.60;99.90;;;;;;5081215;28;20043;-75
2023/10/01 04:41:35;;;;;;;0.75;0.73;;;14.70;99.90;;;;;;5089082;28;20048;-75
2023/10/01 04:44:07;;;;;;;0.38;0.38;;;14.70;99.90;;;;;;5078574;28;20056;-75
2023/10/01 04:46:37;;;;;;;1.05;1.02;;;14.70;99.90;;;;;;5073890;28;20135;-75
2023/10/01 04:51:53;;;;;;;0.68;0.68;;;14.70;99.90;;;;;;5080167;28;20059;-76
2023/10/01 04:54:21;;;;;;;7.03;0.82;;;14.60;99.90;;;;;;5076720;28;20475;-75
2023/10/01 04:56:48;;;;;;;0.55;0.55;;;14.70;99.90;;;;;;5078284;28;20131;-75
2023/10/01 04:59:15;;;;;;;0.57;0.57;;;14.60;99.90;;;;;;5081557;28;20429;-75
2023/10/01 05:01:41;;;;;;;0.30;0.30;;;14.60;99.90;;;;;;5080477;28;20491;-75
2023/10/01 05:04:11;;;;;;;0.90;0.90;;;14.50;99.90;;;;;;5078685;28;20043;-75
2023/10/01 05:06:41;;;;;;;0.40;0.40;;;14.50;99.90;;;;;;5078267;28;20123;-75
2023/10/01 05:09:07;;;;;;;0.70;0.40;;;14.50;99.90;;;;;;5082820;28;20070;-74
2023/10/01 05:11:33;;;;;;;;;;;14.40;99.90;;;;;;5078558;28;20101;-76
2023/10/01 05:13:59;;;;;;;0.30;0.30;;;14.40;99.90;;;;;;5074995;28;20531;-75
2023/10/01 05:16:31;;;;;;;1.10;1.10;;;14.30;99.90;;;;;;5079340;28;20037;-75
2023/10/01 05:19:09;;;;;;;1.75;1.35;;;14.30;99.90;;;;;;5076488;28;20040;-75
2023/10/01 05:21:47;;;;;;;0.40;0.40;;;14.30;99.90;;;;;;5077426;28;20400;-75
2023/10/01 05:24:34;;;;;;;0.40;0.40;;;14.30;99.90;;;;;;5074424;28;20044;-75
2023/10/01 05:27:08;;;;;;;0.40;0.40;;;14.30;99.90;;;;;;5079959;28;20043;-75
2023/10/01 05:29:34;;;;;;;0.55;0.55;;;14.30;99.90;;;;;;5070020;28;20061;-75
2023/10/01 05:32:02;;;;;;;0.45;0.45;;;14.20;99.90;;;;;;5075804;28;20091;-75
2023/10/01 05:34:28;;;;;;;0.45;0.45;;;14.20;99.90;;;;;;5078031;28;20059;-75
2023/10/01 05:37:08;;;;;;;0.85;0.85;;;14.20;99.90;;;;;;5077917;28;20044;-76
2023/10/01 05:39:57;;;;;;;0.30;0.30;;;14.10;99.90;;;;;;5083685;28;20051;-75
2023/10/01 05:42:28;;;;;;;0.43;0.43;;;14.10;99.90;;;;;;5081678;28;20683;-74
2023/10/01 05:44:59;;;;;;;0.63;0.63;;;14.10;99.90;;;;;;5076889;28;20418;-74
2023/10/01 05:50:12;;;;;;;0.40;0.40;;;14.10;99.90;;;;;;5076786;28;20048;-75
2023/10/01 05:52:40;;;;;;;0.25;0.25;;;14.10;99.90;;;;;;5082285;28;20357;-75
2023/10/01 05:55:12;;;;;;;1.40;1.30;;;14.10;99.90;;;;;;5084688;28;20051;-75
2023/10/01 05:57:50;;;;;;;0.22;0.22;;;14.00;99.90;;;;;;5081412;28;20148;-75
2023/10/01 06:00:25;;;;;;;0.30;0.30;;;14.00;99.90;;;;;;5083933;28;20044;-75
2023/10/01 06:03:03;;;;;;;0.28;0.28;;;14.10;99.90;;;;;;5081064;28;20071;-75
2023/10/01 06:05:43;;;;;;;0.30;0.30;;;14.00;99.90;;;;;;5081062;28;20040;-75
2023/10/01 06:08:18;;;;;;;0.47;0.47;;;14.10;99.90;;;;;;5072873;28;20049;-75
2023/10/01 06:10:59;;;;;;;0.57;0.57;;;14.00;99.90;;;;;;5081078;28;20044;-75
2023/10/01 06:13:28;;;;;;;0.30;0.30;;;14.10;99.90;;;;;;5065387;28;20048;-75
2023/10/01 06:15:56;;;;;;;0.77;0.77;;;14.10;99.90;;;;;;5081214;28;20048;-75
2023/10/01 06:18:26;;;;;;;0.30;0.30;;;14.10;99.90;;;;;;5084638;28;20048;-76
2023/10/01 06:20:53;;;;;;;0.40;0.40;;;14.10;99.90;;;;;;5084211;28;20390;-76
2023/10/01 06:23:21;;;;;;;0.98;0.98;;;14.10;99.90;;;;;;5081030;28;20435;-75
2023/10/01 06:25:53;;;;;;;1.02;0.85;;;14.10;99.90;;;;;;5075764;28;20044;-75
2023/10/01 06:28:20;;;;;;;0.68;0.68;;;14.10;99.90;;;;;;5080723;28;20136;-75
2023/10/01 06:30:46;;;;;;;0.60;0.60;;;14.20;99.90;;;;;;5080675;28;20071;-75
2023/10/01 06:33:29;;;;;;;;;;;14.20;99.90;;;;;;5081575;28;20056;-75
2023/10/01 06:38:41;;;;;;;0.60;0.60;;;14.20;99.90;;;;;;5072843;28;20055;-76
2023/10/01 06:41:13;;;;;;;0.55;0.55;;;14.20;99.90;;;;;;5080721;28;20040;-77
2023/10/01 06:43:48;;;;;;;0.73;0.73;;;14.30;99.90;;;;;;5080336;28;20440;-76
2023/10/01 06:46:27;;;;;;;0.70;0.45;;;14.30;99.90;;;;;;5078712;28;20048;-75
2023/10/01 06:48:58;;;;;;;1.85;1.02;;;14.30;99.90;;;;;;5060543;28;20129;-76
2023/10/01 06:51:26;;;;;;;1.58;1.35;;;14.40;99.90;;;;;;5077445;28;20423;-76
2023/10/01 06:53:59;;;;;;;0.50;0.50;;;14.50;99.90;;;;;;5080882;28;20041;-76
2023/10/01 06:56:27;;;;;;;1.00;1.00;;;14.50;99.90;;;;;;5081940;28;20044;-76
2023/10/01 07:01:42;;;;;;;0.80;0.40;;;14.70;99.90;;;;;;5079774;28;20095;-76
2023/10/01 07:04:11;;;;;;;0.30;0.30;;;14.70;99.90;;;;;;5062173;28;20048;-76
2023/10/01 07:06:39;;;;;;;0.63;0.63;;;14.80;99.90;;;;;;5079355;28;20447;-76
2023/10/01 07:09:24;;;;;;;1.35;1.27;;;14.90;99.90;;;;;;5078555;28;20048;-75
2023/10/01 07:12:03;;;;;;;0.40;0.40;;;14.90;99.90;;;;;;5080356;28;20079;-75
2023/10/01 07:14:50;;;;;;;0.30;0.30;;;15.00;99.90;;;;;;5083424;28;20048;-76
2023/10/01 07:17:24;;;;;;;0.60;0.60;;;15.10;99.90;;;;;;5071560;28;20119;-76
2023/10/01 07:20:00;;;;;;;0.40;0.40;;;15.20;99.90;;;;;;5079763;28;20048;-75
2023/10/01 07:22:31;;;;;;;0.55;0.52;;;15.20;99.90;;;;;;5073247;28;20418;-76
2023/10/01 07:25:01;;;;;;;1.15;1.05;;;15.30;99.90;;;;;;5079582;28;20052;-76
2023/10/01 07:27:27;;;;;;;0.50;0.50;;;15.40;99.90;;;;;;5074880;28;20059;-75
2023/10/01 07:29:54;;;;;;;0.77;0.77;;;15.40;99.90;;;;;;5079763;28;20060;-76
2023/10/01 07:32:23;;;;;;;0.50;0.50;;;15.40;99.90;;;;;;5080030;28;20236;-76
2023/10/01 07:34:58;;;;;;;0.57;0.57;;;15.50;99.90;;;;;;5079559;28;20049;-76
2023/10/01 07:37:25;;;;;;;0.20;0.20;;;15.50;99.90;;;;;;5081693;28;20056;-76
2023/10/01 07:40:09;;;;;;;0.40;0.40;;;15.60;99.90;;;;;;5078216;28;20044;-76
2023/10/01 07:42:46;;;;;;;0.65;0.65;;;15.60;99.90;;;;;;5081975;28;20052;-75
2023/10/01 07:45:21;;;;;;;1.30;1.30;;;15.70;99.90;;;;;;5079492;28;20529;-76
2023/10/01 07:47:51;;;;;;;0.65;0.65;;;15.70;99.90;;;;;;5078696;28;20171;-76
2023/10/01 07:50:17;;;;;;;1.00;1.00;;;15.60;99.90;;;;;;5082585;28;20043;-76
2023/10/01 07:52:44;;;;;;;0.50;0.50;;;15.60;99.90;;;;;;5079967;28;20518;-76
2023/10/01 07:58:22;;;;;;;0.52;0.52;;;15.60;99.90;;;;;;5070817;28;20139;-75
2023/10/01 08:00:44;;;;;;;0.83;0.60;;;15.60;99.90;;;;;;5079478;28;20093;-76
2023/10/01 08:05:48;;;;;;;0.55;0.55;;;15.50;99.90;;;;;;5078536;28;20056;-75
2023/10/01 08:08:37;;;;;;;4.20;1.05;;;15.40;99.90;;;;;;5078439;28;20051;-76
2023/10/01 08:13:51;;;;;;;0.50;0.50;;;15.50;99.90;;;;;;5081519;28;20143;-76
2023/10/01 08:16:17;;;;;;;1.23;1.15;;;15.60;99.90;;;;;;5078745;28;20217;-75
2023/10/01 08:18:46;;;;;;;0.30;0.30;;;15.60;99.90;;;;;;5076348;28;20648;-76
2023/10/01 08:21:18;;;;;;;0.90;0.50;;;15.70;99.90;;;;;;5078802;28;20602;-75
2023/10/01 08:23:48;;;;;;;0.20;0.20;;;15.70;99.90;;;;;;5078706;28;20127;-76
2023/10/01 08:29:03;;;;;;;1.92;1.05;;;15.90;99.90;;;;;;5077238;28;20126;-75
2023/10/01 08:34:22;;;;;;;0.20;0.20;;;16.10;99.90;;;;;;5078871;28;20060;-76
2023/10/01 08:37:06;;;;;;;0.52;0.52;;;16.20;99.90;;;;;;5075548;28;20056;-76
2023/10/01 08:39:35;;;;;;;0.88;0.85;;;16.20;99.90;;;;;;5085092;28;20047;-76
2023/10/01 08:42:10;;;;;;;0.63;0.63;;;16.30;99.90;;;;;;5081004;28;20131;-75
2023/10/01 08:44:52;;;;;;;0.30;0.30;;;16.30;99.90;;;;;;5071673;28;20392;-75
2023/10/01 08:47:21;;;;;;;1.25;1.23;;;16.50;99.90;;;;;;5070298;28;20056;-76
2023/10/01 08:49:51;;;;;;;1.30;1.20;;;16.60;99.90;;;;;;5070027;28;20131;-76
2023/10/01 08:52:25;;;;;;;1.23;1.17;;;16.60;99.90;;;;;;5080532;28;20051;-75
2023/10/01 08:54:55;;;;;;;0.35;0.35;;;16.70;99.90;;;;;;5071708;28;20390;-76
2023/10/01 08:57:36;;;;;;;0.52;0.52;;;16.60;99.90;;;;;;5080451;28;20440;-75
2023/10/01 09:00:20;;;;;;;1.35;0.75;;;16.60;99.90;;;;;;5070384;28;20079;-75
2023/10/01 09:03:07;;;;;;;1.48;1.38;;;16.60;99.90;;;;;;5078423;28;20052;-76
2023/10/01 09:05:34;;;;;;;;;;;16.60;99.90;;;;;;5079215;28;20129;-76
2023/10/01 09:08:26;;;;;;;0.80;0.80;;;16.70;99.90;;;;;;5080770;28;19932;-75
2023/10/01 09:10:56;;;;;;;2.03;1.70;;;16.70;99.90;;;;;;5080029;28;20536;-76
2023/10/01 09:13:22;;;;;;;0.40;0.40;;;16.80;99.90;;;;;;5077480;28;20041;-76
2023/10/01 09:15:53;;;;;;;;;;;16.90;99.90;;;;;;5078475;28;20097;-76
2023/10/01 09:18:22;;;;;;;1.17;1.10;;;17.00;99.90;;;;;;5081212;28;20007;-75
2023/10/01 09:23:56;;;;;;;0.52;0.52;;;17.40;99.90;;;;;;5076239;28;20049;-75
2023/10/01 09:26:42;;;;;;;1.90;1.80;;;17.60;99.90;;;;;;5073372;28;20048;-75
2023/10/01 09:29:25;;;;;;;0.30;0.30;;;17.80;99.90;;;;;;5085754;28;20048;-75
2023/10/01 09:31:58;;;;;;;0.50;0.50;;;18.10;99.90;;;;;;5081968;28;20048;-75
2023/10/01 09:34:33;;;;;;;0.52;0.52;;;18.20;99.90;;;;;;5081343;28;20062;-76
2023/10/01 09:37:18;;;;;;;0.88;0.88;;;18.40;99.90;;;;;;5079587;28;20055;-75
2023/10/01 09:39:43;;;;;;;1.55;0.50;;;18.50;99.90;;;;;;5078563;28;20040;-75
2023/10/01 09:42:22;;;;;;;;;;;18.60;99.90;;;;;;5084844;28;20051;-75
2023/10/01 09:45:09;;;;;;;1.00;0.55;;;18.60;99.90;;;;;;5081699;28;19931;-75
2023/10/01 09:47:35;;;;;;;0.32;0.32;;;18.70;99.90;;;;;;5081406;28;20589;-75
2023/10/01 09:50:04;;;;;;;3.28;1.00;;;18.80;99.90;;;;;;5083434;28;20048;-76
2023/10/01 09:52:48;;;;;;;0.43;0.43;;;18.80;99.90;;;;;;5083512;28;20058;-75
2023/10/01 09:55:29;;;;;;;1.23;1.13;;;18.90;99.90;;;;;;5081805;28;20036;-75
2023/10/01 09:57:56;;;;;;;0.50;0.45;;;18.80;99.90;;;;;;5073083;28;20048;-75
2023/10/01 10:00:39;;;;;;;1.42;1.15;;;18.90;99.90;;;;;;5080962;28;20036;-76
2023/10/01 10:03:11;;;;;;;1.00;0.88;;;19.00;99.90;;;;;;5080901;28;20400;-75
2023/10/01 10:05:40;;;;;;;0.73;0.73;;;19.10;99.90;;;;;;5080735;28;20415;-75
2023/10/01 10:08:15;;;;;;;1.75;0.43;;;19.30;99.90;;;;;;5080696;28;20531;-74
2023/10/01 10:10:48;;;;;;;1.38;1.13;;;19.50;99.90;;;;;;5079916;28;20048;-75
2023/10/01 10:13:50;;;;;;;1.92;1.30;;;19.70;99.90;;;;;;5073185;28;20120;-75
2023/10/01 10:16:32;;;;;;;1.38;1.00;;;19.90;99.90;;;;;;4998318;28;20096;-76
2023/10/01 10:19:15;;;;;;;0.98;0.63;;;20.10;99.90;;;;;;5074312;28;20044;-76
2023/10/01 10:24:32;;;;;;;0.93;0.80;;;20.50;99.90;;;;;;5073694;28;20121;-76
2023/10/01 10:27:03;;;;;;;10.77;1.25;;;20.60;99.90;;;;;;5072662;28;20127;-76
2023/10/01 10:29:47;;;;;;;15.75;1.00;;;20.70;99.90;;;;;;5083900;28;20048;-75
2023/10/01 10:32:13;;;;;;;1.00;1.00;;;20.80;99.90;;;;;;5081704;28;20495;-75
2023/10/01 10:35:06;;;;;;;1.50;1.40;;;20.90;99.90;;;;;;5082979;28;20127;-75
2023/10/01 10:37:55;;;;;;;0.73;0.73;;;20.90;99.90;;;;;;5071905;28;20048;-76
2023/10/01 10:40:22;;;;;;;0.38;0.38;;;21.00;99.90;;;;;;5074510;28;20055;-76
2023/10/01 10:43:16;;;;;;;0.95;0.80;;;21.00;99.90;;;;;;5083918;28;20055;-76
2023/10/01 10:45:57;;;;;;;3.15;2.72;;;21.00;99.90;;;;;;5068900;28;20054;-77
2023/10/01 10:48:59;;;;;;;1.50;1.40;;;20.90;99.90;;;;;;5079999;28;20048;-75
2023/10/01 10:51:45;;;;;;;0.73;0.73;;;20.70;99.90;;;;;;5070923;28;20106;-76
2023/10/01 10:54:16;;;;;;;0.40;0.40;;;20.70;99.90;;;;;;5077871;28;20045;-75
2023/10/01 10:56:44;;;;;;;5.47;0.85;;;20.70;99.90;;;;;;5081867;28;20688;-76
2023/10/01 10:59:13;;;;;;;1.15;0.93;;;20.60;99.90;;;;;;5083395;28;20372;-75
2023/10/01 11:01:47;;;;;;;1.42;0.70;;;20.70;99.90;;;;;;5081195;28;20063;-76
2023/10/01 11:04:16;;;;;;;1.05;1.05;;;20.80;99.90;;;;;;5085423;28;20070;-75
2023/10/01 11:06:42;;;;;;;0.60;0.50;;;20.70;99.90;;;;;;5082237;28;20504;-75
2023/10/01 11:09:22;;;;;;;0.65;0.65;;;20.60;99.90;;;;;;5080045;28;20041;-76
2023/10/01 11:11:49;;;;;;;0.43;0.43;;;20.50;99.90;;;;;;5080854;28;20497;-76
2023/10/01 11:14:18;;;;;;;4.13;1.60;;;20.40;99.90;;;;;;5082881;28;20044;-76
2023/10/01 11:16:46;;;;;;;1.73;1.63;;;20.40;99.90;;;;;;5083579;28;20047;-76
2023/10/01 11:19:14;;;;;;;0.93;0.93;;;20.30;99.90;;;;;;5079939;28;20068;-76
2023/10/01 11:22:00;;;;;;;0.70;0.70;;;20.40;99.90;;;;;;5079894;28;20048;-76
2023/10/01 11:24:29;;;;;;;0.50;0.50;;;20.40;99.90;;;;;;5072353;28;20080;-75
2023/10/01 11:27:25;;;;;;;3.42;1.00;;;20.40;99.90;;;;;;5070489;28;20352;-75
2023/10/01 11:30:16;;;;;;;1.38;1.23;;;20.50;99.90;;;;;;5082753;28;20091;-75
2023/10/01 11:33:03;;;;;;;0.50;0.50;;;20.60;99.90;;;;;;5082758;28;20055;-75
2023/10/01 11:36:07;;;;;;;0.68;0.68;;;20.80;99.90;;;;;;5071117;28;20048;-75
2023/10/01 11:38:35;;;;;;;1.20;1.10;;;20.90;99.90;;;;;;5071412;28;20118;-76
2023/10/01 11:41:18;;;;;;;0.57;0.47;;;21.00;99.90;;;;;;5082618;28;20052;-76
2023/10/01 11:43:59;;;;;;;2.28;0.82;;;21.10;99.90;;;;;;5059555;28;20051;-75
2023/10/01 11:46:29;;;;;;;0.55;0.55;;;21.20;99.90;;;;;;5077417;28;20052;-76
2023/10/01 11:49:04;;;;;;;0.60;0.47;;;21.20;99.90;;;;;;5083236;28;20151;-76
2023/10/01 11:51:36;;;;;;;0.40;0.40;;;21.30;99.90;;;;;;5080376;28;20439;-76
2023/10/01 11:54:12;;;;;;;4.75;0.57;;;21.30;99.90;;;;;;5079987;28;20128;-76
2023/10/01 11:56:40;;;;;;;2.10;1.98;;;21.30;99.90;;;;;;5080203;28;20052;-76
2023/10/01 11:59:08;;;;;;;1.38;1.25;;;21.10;99.90;;;;;;5082830;28;20451;-76
2023/10/01 12:01:47;;;;;;;2.08;1.33;;;21.10;99.90;;;;;;5081672;28;20052;-75
2023/10/01 12:04:43;;;;;;;2.28;2.17;;;21.00;99.90;;;;;;5082343;28;20050;-76
2023/10/01 12:07:16;;;;;;;1.33;0.60;;;21.00;99.90;;;;;;5072047;28;20048;-76
2023/10/01 12:09:50;;;;;;;2.30;1.90;;;20.90;99.90;;;;;;5077358;28;20445;-76
2023/10/01 12:12:18;;;;;;;1.48;0.90;;;20.80;99.90;;;;;;5078985;28;20107;-75
2023/10/01 12:14:54;;;;;;;0.70;0.60;;;20.80;99.90;;;;;;5079042;28;20040;-76
2023/10/01 12:17:28;;;;;;;0.65;0.55;;;20.80;99.90;;;;;;5072673;28;20044;-75
2023/10/01 12:19:57;;;;;;;0.88;0.50;;;20.90;99.90;;;;;;5080168;28;20533;-76
2023/10/01 12:22:24;;;;;;;0.95;0.95;;;21.00;99.90;;;;;;5074078;28;20051;-75
2023/10/01 12:24:56;;;;;;;1.10;1.10;;;21.10;99.90;;;;;;5075503;28;20413;-75
2023/10/01 12:27:42;;;;;;;0.93;0.88;;;21.20;99.90;;;;;;5070138;28;20063;-75
2023/10/01 12:30:28;;;;;;;1.50;0.70;;;21.30;99.90;;;;;;5080169;28;20059;-75
2023/10/01 12:33:02;;;;;;;1.40;0.77;;;21.50;99.90;;;;;;5070712;28;20554;-75
2023/10/01 12:35:31;;;;;;;1.77;1.55;;;21.50;99.90;;;;;;5060433;28;20055;-75
2023/10/01 12:40:52;;;;;;;1.25;1.15;;;21.70;99.90;;;;;;5078132;28;20060;-75
2023/10/01 12:46:18;;;;;;;1.77;1.67;;;21.90;99.90;;;;;;5038025;28;20132;-76
2023/10/01 12:51:33;;;;;;;0.80;0.80;;;22.00;99.90;;;;;;5078746;28;20052;-75
2023/10/01 12:54:00;;;;;;;0.50;0.50;;;22.10;99.90;;;;;;5079398;28;20077;-75
2023/10/01 12:59:18;;;;;;;1.58;1.48;;;22.30;99.90;;;;;;5081696;28;20131;-75
2023/10/01 13:01:50;;;;;;;1.15;1.13;;;22.40;99.90;;;;;;5078716;28;20546;-75
2023/10/01 13:04:25;;;;;;;0.47;0.47;;;22.60;99.90;;;;;;5078686;28;20037;-75
2023/10/01 13:07:01;;;;;;;0.30;0.30;;;22.70;99.90;;;;;;5080389;28;20109;-75
2023/10/01 13:12:15;;;;;;;1.77;1.40;;;22.60;99.90;;;;;;5068531;28;20101;-76
2023/10/01 13:14:41;;;;;;;0.93;0.93;;;22.50;99.90;;;;;;5077458;28;20073;-75
2023/10/01 13:17:19;;;;;;;0.95;0.95;;;22.60;99.90;;;;;;5063531;28;20039;-75
2023/10/01 13:19:48;;;;;;;0.30;0.30;;;22.80;99.90;;;;;;5081232;28;20529;-75
2023/10/01 13:22:18;;;;;;;1.00;1.00;;;23.10;99.90;;;;;;5070169;28;20066;-76
2023/10/01 13:24:53;;;;;;;0.85;0.80;;;23.00;99.90;;;;;;5077593;28;20051;-76
2023/10/01 13:27:21;;;;;;;2.38;1.85;;;22.80;99.90;;;;;;5064585;28;20037;-75
2023/10/01 13:29:49;;;;;;;0.15;0.15;;;22.70;99.90;;;;;;5077504;28;20057;-75
2023/10/01 13:32:26;;;;;;;15.82;2.08;;;22.70;99.90;;;;;;5078705;28;20064;-75
2023/10/01 13:34:58;;;;;;;5.07;1.85;;;22.70;99.90;;;;;;5080522;28;20056;-75
2023/10/01 13:40:13;;;;;;;2.25;1.25;;;22.80;99.90;;;;;;5084721;28;20052;-75
2023/10/01 14:10:38;;;;;;;1.73;1.60;;;22.80;99.90;;;;;;5084135;28;20054;-75
2023/10/01 14:13:06;;;;;;;1.50;1.40;;;22.60;99.90;;;;;;5072845;28;20044;-76
2023/10/01 14:15:31;;;;;;;1.45;0.95;;;22.40;99.90;;;;;;5079073;28;20044;-74
2023/10/01 14:17:58;;;;;;;1.15;1.15;;;22.30;99.90;;;;;;5082141;28;20547;-75
2023/10/01 14:23:07;;;;;;;1.02;1.02;;;22.30;99.90;;;;;;5082762;28;20136;-75
2023/10/01 14:25:52;;;;;;;1.00;0.80;;;22.30;99.90;;;;;;5059687;28;20048;-75
2023/10/01 14:28:25;;;;;;;1.15;0.85;;;22.20;99.90;;;;;;5080533;28;20049;-75
2023/10/01 14:30:58;;;;;;;1.85;1.15;;;22.20;99.90;;;;;;5079659;28;20056;-75
2023/10/01 14:33:28;;;;;;;1.20;1.08;;;22.20;99.90;;;;;;5078697;28;20065;-76
2023/10/01 14:35:55;;;;;;;1.75;1.58;;;22.10;99.90;;;;;;5080459;28;20040;-75
2023/10/01 14:38:37;;;;;;;11.52;1.52;;;22.00;99.90;;;;;;5083444;28;20501;-76
2023/10/01 14:41:17;;;;;;;0.70;0.70;;;21.90;99.90;;;;;;5082316;28;20060;-75
2023/10/01 14:43:53;;;;;;;1.67;1.58;;;21.80;99.90;;;;;;5073010;28;20048;-75
2023/10/01 14:46:21;;;;;;;5.13;2.50;;;21.80;99.90;;;;;;5078200;28;20048;-75
2023/10/01 14:48:47;;;;;;;0.65;0.65;;;21.80;99.90;;;;;;5080416;28;20048;-75
2023/10/01 14:51:19;;;;;;;1.48;0.88;;;21.70;99.90;;;;;;5082814;28;20496;-75
2023/10/01 14:53:54;;;;;;;4.60;0.60;;;21.80;99.90;;;;;;5080756;28;20083;-74
2023/10/01 14:56:23;;;;;;;0.47;0.47;;;21.90;99.90;;;;;;5075950;28;20056;-75
2023/10/01 14:58:52;;;;;;;1.00;1.00;;;22.20;99.90;;;;;;5071870;28;20407;-75